Time;durP1;ratioP1;P1;durP2;ratioP2;P2;SDS_P1;SDS_P2;PMS_P1;PMS_P2;Temp;Humidity;BMP_temperature;BMP_pressure;BME280_temperature;BME280_humidity;BME280_pressure;Samples;Min_cycle;Max_cycle;Signal;HPM_P1;HPM_P2
2022/10/31 04:00:35;;;;;;;9.60;5.63;;;18.80;53.90;;;;;;5978018;23;45091;31
2022/10/31 04:03:14;;;;;;;7.88;5.40;;;18.80;53.90;;;;;;4808394;29;45369;-62
2022/10/31 04:05:40;;;;;;;8.85;5.60;;;18.80;54.00;;;;;;4810100;29;45978;-64
2022/10/31 04:08:08;;;;;;;8.85;6.18;;;18.80;54.10;;;;;;4807243;29;46247;-63
2022/10/31 04:10:34;;;;;;;8.25;5.70;;;18.80;54.00;;;;;;4818059;29;45609;-64
2022/10/31 04:13:03;;;;;;;7.55;5.45;;;18.90;54.60;;;;;;4805765;29;45073;-62
2022/10/31 04:15:29;;;;;;;7.90;5.65;;;18.80;54.00;;;;;;4803981;29;45662;-64
2022/10/31 04:17:56;;;;;;;7.80;5.55;;;18.90;54.60;;;;;;4800043;29;45556;-62
2022/10/31 04:20:32;;;;;;;7.93;5.55;;;18.80;54.00;;;;;;4804302;29;45285;-63
2022/10/31 04:22:57;;;;;;;7.10;4.78;;;18.80;53.90;;;;;;4797783;29;45514;-62
2022/10/31 04:25:23;;;;;;;9.63;5.13;;;18.80;54.10;;;;;;4804148;29;44813;-62
2022/10/31 04:27:49;;;;;;;6.95;5.30;;;18.80;54.20;;;;;;4798578;29;46950;-63
2022/10/31 04:30:15;;;;;;;6.32;4.85;;;18.80;54.20;;;;;;4801686;29;45552;-63
2022/10/31 04:32:40;;;;;;;6.15;4.38;;;18.80;54.30;;;;;;4802147;29;45547;-62
2022/10/31 04:35:06;;;;;;;6.75;4.65;;;18.80;54.30;;;;;;4814247;29;46382;-63
2022/10/31 04:37:32;;;;;;;7.93;5.10;;;18.80;54.30;;;;;;4802226;29;45739;-63
2022/10/31 04:39:57;;;;;;;5.70;4.07;;;18.80;55.00;;;;;;4802651;29;44984;-62
2022/10/31 04:42:23;;;;;;;5.97;4.20;;;18.80;54.40;;;;;;4800981;29;45472;-63
2022/10/31 04:44:48;;;;;;;6.43;4.38;;;18.80;54.40;;;;;;4805577;29;44984;-63
2022/10/31 04:47:14;;;;;;;6.30;3.80;;;18.80;54.40;;;;;;4803515;29;46004;-62
2022/10/31 04:49:39;;;;;;;5.80;4.07;;;18.80;54.30;;;;;;4802716;29;45006;-61
2022/10/31 04:52:05;;;;;;;4.93;3.63;;;18.80;54.30;;;;;;4800535;29;45266;-62
2022/10/31 04:54:31;;;;;;;5.55;3.92;;;18.80;54.30;;;;;;4805108;29;45126;-61
2022/10/31 04:56:56;;;;;;;5.18;3.90;;;18.80;54.30;;;;;;4797973;29;46099;-60
2022/10/31 04:59:22;;;;;;;4.28;3.60;;;18.80;54.40;;;;;;4802227;29;45223;-63
2022/10/31 05:01:47;;;;;;;6.72;3.50;;;18.80;54.40;;;;;;4797451;29;45831;-63
2022/10/31 05:04:13;;;;;;;5.05;3.55;;;18.80;54.40;;;;;;4804962;29;45416;-63
2022/10/31 05:06:39;;;;;;;5.15;3.70;;;18.80;54.30;;;;;;4802809;29;45809;-63
2022/10/31 05:09:04;;;;;;;3.90;3.20;;;18.80;54.40;;;;;;4801325;29;45314;-62
2022/10/31 05:11:30;;;;;;;5.85;3.60;;;18.80;54.40;;;;;;4802979;29;45417;-63
2022/10/31 05:13:55;;;;;;;5.00;3.58;;;18.80;54.30;;;;;;4803050;29;45797;-63
2022/10/31 05:16:21;;;;;;;3.70;3.15;;;18.80;54.30;;;;;;4802348;29;46408;-62
2022/10/31 05:18:46;;;;;;;4.93;3.35;;;18.80;54.30;;;;;;4804790;29;44943;-63
2022/10/31 05:21:12;;;;;;;3.47;3.17;;;18.80;54.20;;;;;;4804740;29;45678;-64
2022/10/31 05:23:37;;;;;;;3.75;3.05;;;18.80;54.20;;;;;;4802118;29;45479;-64
2022/10/31 05:26:03;;;;;;;5.88;3.92;;;18.80;54.10;;;;;;4800913;29;46343;-63
2022/10/31 05:28:28;;;;;;;3.45;2.97;;;18.70;54.10;;;;;;4805375;29;45533;-61
2022/10/31 05:30:54;;;;;;;3.60;3.20;;;18.80;54.20;;;;;;4805745;29;45351;-63
2022/10/31 05:33:20;;;;;;;3.55;3.20;;;18.80;54.10;;;;;;4804091;29;45510;-65
2022/10/31 05:35:45;;;;;;;2.80;2.47;;;18.80;54.10;;;;;;4806306;29;46962;-63
2022/10/31 05:38:11;;;;;;;4.00;3.13;;;18.70;54.10;;;;;;4802242;29;45065;-63
2022/10/31 05:40:36;;;;;;;4.35;2.95;;;18.70;54.10;;;;;;4803381;29;45515;-64
2022/10/31 05:43:02;;;;;;;5.10;2.85;;;18.70;54.10;;;;;;4805869;29;45826;-63
2022/10/31 05:45:27;;;;;;;3.38;3.08;;;18.70;54.00;;;;;;4805983;29;45469;-63
2022/10/31 05:47:54;;;;;;;4.60;3.17;;;18.70;54.60;;;;;;4804872;29;44703;-62
2022/10/31 05:50:20;;;;;;;5.18;3.35;;;18.70;54.10;;;;;;4806190;29;45673;-62
2022/10/31 05:52:45;;;;;;;3.83;3.05;;;18.70;54.00;;;;;;4802932;29;45008;-63
2022/10/31 05:55:11;;;;;;;3.55;2.75;;;18.70;54.00;;;;;;4809944;29;46546;-63
2022/10/31 05:57:37;;;;;;;5.55;3.20;;;18.70;54.00;;;;;;4804787;29;45537;-64
2022/10/31 06:00:03;;;;;;;5.72;3.47;;;18.70;54.00;;;;;;4806173;29;45393;-63
2022/10/31 06:02:34;;;;;;;3.65;2.95;;;18.70;53.90;;;;;;4805073;29;44969;-63
2022/10/31 06:05:00;;;;;;;4.47;3.47;;;18.70;53.90;;;;;;4807016;29;46484;-63
2022/10/31 06:07:25;;;;;;;5.25;3.00;;;18.70;53.90;;;;;;4805445;29;45325;-63
2022/10/31 06:09:51;;;;;;;5.43;3.30;;;18.70;53.90;;;;;;4807341;29;45316;-63
2022/10/31 06:12:16;;;;;;;7.20;3.63;;;18.70;53.70;;;;;;4807694;29;45703;-63
2022/10/31 06:14:42;;;;;;;7.22;3.40;;;18.70;53.70;;;;;;4805365;29;45605;-62
2022/10/31 06:17:07;;;;;;;4.05;3.15;;;18.70;53.80;;;;;;4805007;29;46782;-63
2022/10/31 06:19:33;;;;;;;5.43;2.88;;;18.70;53.80;;;;;;4808001;29;45112;-63
2022/10/31 06:21:58;;;;;;;3.67;2.95;;;18.70;53.80;;;;;;4807443;29;45566;-63
2022/10/31 06:24:24;;;;;;;4.93;3.30;;;18.70;53.80;;;;;;4807255;29;45934;-62
2022/10/31 06:26:49;;;;;;;4.15;3.13;;;18.70;53.80;;;;;;4807059;29;45350;-63
2022/10/31 06:29:15;;;;;;;4.57;2.80;;;18.70;53.70;;;;;;4804721;29;45305;-63
2022/10/31 06:31:40;;;;;;;5.95;3.28;;;18.70;53.80;;;;;;4798811;29;45394;-61
2022/10/31 06:34:06;;;;;;;3.60;2.65;;;18.70;53.80;;;;;;4803242;29;45877;-64
2022/10/31 06:36:31;;;;;;;5.00;3.15;;;18.70;53.70;;;;;;4805575;29;45448;-62
2022/10/31 06:38:57;;;;;;;3.17;2.80;;;18.70;53.60;;;;;;4805859;29;46316;-63
2022/10/31 06:41:23;;;;;;;5.88;3.13;;;18.70;53.50;;;;;;4805304;29;45270;-63
2022/10/31 06:43:48;;;;;;;3.58;2.92;;;18.70;53.60;;;;;;4805219;29;45509;-64
2022/10/31 06:46:14;;;;;;;4.80;2.97;;;18.70;53.60;;;;;;4805868;29;46081;-63
2022/10/31 06:48:43;;;;;;;4.50;3.25;;;18.70;53.60;;;;;;4803846;29;44943;-62
2022/10/31 06:51:08;;;;;;;5.18;2.95;;;18.70;53.60;;;;;;4805465;29;45511;-62
2022/10/31 06:53:34;;;;;;;4.75;3.03;;;18.70;53.60;;;;;;4806388;29;45907;-64
2022/10/31 06:55:59;;;;;;;3.30;2.80;;;18.60;53.50;;;;;;4805366;29;45609;-63
2022/10/31 06:58:25;;;;;;;4.78;3.25;;;18.60;53.60;;;;;;4805477;29;44669;-63
2022/10/31 07:00:50;;;;;;;4.40;2.80;;;18.70;53.60;;;;;;4805728;29;45461;-63
2022/10/31 07:03:16;;;;;;;4.05;2.72;;;18.70;53.50;;;;;;4806516;29;45481;-61
2022/10/31 07:05:42;;;;;;;5.30;3.13;;;18.80;53.60;;;;;;4805870;29;45526;-60
2022/10/31 07:08:09;;;;;;;6.80;2.65;;;18.80;53.70;;;;;;4802342;29;45361;-62
2022/10/31 07:10:36;;;;;;;4.30;3.13;;;18.90;54.10;;;;;;4805530;29;44955;-62
2022/10/31 07:13:03;;;;;;;3.60;2.45;;;19.10;53.50;;;;;;4805245;29;46544;-60
2022/10/31 07:15:29;;;;;;;3.58;2.60;;;19.40;53.30;;;;;;4802288;29;44754;-63
2022/10/31 07:18:06;;;;;;;5.32;2.80;;;19.50;53.00;;;;;;4800483;29;44888;-62
2022/10/31 07:20:32;;;;;;;3.38;2.50;;;19.80;52.80;;;;;;4805548;29;45291;-63
2022/10/31 07:22:58;;;;;;;2.47;2.25;;;20.00;52.60;;;;;;4804911;29;45479;-63
2022/10/31 07:25:23;;;;;;;3.75;2.47;;;20.20;52.50;;;;;;4799458;29;45411;-63
2022/10/31 07:27:49;;;;;;;4.70;2.30;;;20.30;52.40;;;;;;4804594;29;45505;-64
2022/10/31 07:30:16;;;;;;;3.63;2.60;;;20.40;52.30;;;;;;4808073;29;45272;-68
2022/10/31 07:32:49;;;;;;;3.97;2.60;;;20.60;52.20;;;;;;4806173;29;45685;-64
2022/10/31 07:35:19;;;;;;;4.13;2.63;;;20.70;52.10;;;;;;4803982;29;45464;-63
2022/10/31 07:37:45;;;;;;;2.53;2.30;;;20.90;52.00;;;;;;4803983;29;45495;-63
2022/10/31 07:40:11;;;;;;;5.85;2.28;;;21.00;52.00;;;;;;4806069;29;45283;-64
2022/10/31 07:42:37;;;;;;;2.97;2.33;;;21.20;51.90;;;;;;4802106;29;46016;-63
2022/10/31 07:45:04;;;;;;;2.55;2.15;;;21.20;51.70;;;;;;4805130;29;45450;-64
2022/10/31 07:47:30;;;;;;;3.47;2.13;;;21.40;51.70;;;;;;4803728;29;45450;-63
2022/10/31 07:49:55;;;;;;;3.13;2.17;;;21.50;51.60;;;;;;4804731;29;45375;-63
2022/10/31 07:52:21;;;;;;;4.72;2.17;;;21.60;51.50;;;;;;4801844;29;46021;-63
2022/10/31 07:54:46;;;;;;;4.13;2.10;;;21.70;51.50;;;;;;4805066;29;45298;-63
2022/10/31 07:57:12;;;;;;;3.25;2.30;;;21.80;51.40;;;;;;4803617;29;45362;-64
2022/10/31 07:59:37;;;;;;;3.05;2.20;;;21.90;51.40;;;;;;4804678;29;45012;-62
2022/10/31 08:02:03;;;;;;;2.97;2.20;;;22.00;51.30;;;;;;4802905;29;46841;-63
2022/10/31 08:04:28;;;;;;;3.05;2.05;;;22.20;51.20;;;;;;4800439;29;45345;-63
2022/10/31 08:06:54;;;;;;;3.92;2.10;;;22.30;51.10;;;;;;4806104;29;44996;-62
2022/10/31 08:09:19;;;;;;;2.92;2.10;;;22.40;50.90;;;;;;4809546;29;45591;-65
2022/10/31 08:11:45;;;;;;;3.55;2.00;;;22.50;50.80;;;;;;4805300;29;46107;-63
2022/10/31 08:14:10;;;;;;;4.15;2.50;;;22.60;50.80;;;;;;4805349;29;46548;-63
2022/10/31 08:16:36;;;;;;;4.03;2.28;;;22.70;50.70;;;;;;4796776;29;45214;-64
2022/10/31 08:19:01;;;;;;;3.03;2.05;;;22.70;50.50;;;;;;4802686;29;45213;-64
2022/10/31 08:21:27;;;;;;;3.92;2.17;;;22.90;50.60;;;;;;4801827;29;44871;-63
2022/10/31 08:23:53;;;;;;;5.25;2.10;;;22.90;50.50;;;;;;4792540;29;45334;-63
2022/10/31 08:26:18;;;;;;;3.58;2.03;;;23.00;50.50;;;;;;4787880;29;45449;-62
2022/10/31 08:28:44;;;;;;;2.63;1.83;;;23.10;50.40;;;;;;4805337;29;45632;-64
2022/10/31 08:31:09;;;;;;;6.47;2.38;;;23.20;50.40;;;;;;4803772;29;44979;-64
2022/10/31 08:33:35;;;;;;;3.83;2.17;;;23.30;50.30;;;;;;4798868;29;45436;-64
2022/10/31 08:36:01;;;;;;;2.83;1.95;;;23.40;50.20;;;;;;4804621;29;45508;-64
2022/10/31 08:38:26;;;;;;;2.13;1.85;;;23.50;50.10;;;;;;4802660;29;45233;-63
2022/10/31 08:40:52;;;;;;;2.65;1.80;;;23.50;50.00;;;;;;4802134;29;46136;-64
2022/10/31 08:43:17;;;;;;;2.72;1.98;;;23.60;50.00;;;;;;4801984;29;45013;-64
2022/10/31 08:45:43;;;;;;;2.30;1.83;;;23.70;49.90;;;;;;4797993;29;45235;-64
2022/10/31 08:48:11;;;;;;;6.40;2.10;;;23.80;49.80;;;;;;4804294;29;45568;-64
2022/10/31 08:50:37;;;;;;;2.95;2.10;;;23.90;49.70;;;;;;4807733;29;46092;-64
2022/10/31 08:53:03;;;;;;;3.25;2.15;;;23.90;49.60;;;;;;4800080;29;45381;-64
2022/10/31 08:55:29;;;;;;;3.08;2.13;;;24.00;49.60;;;;;;4796399;29;45331;-64
2022/10/31 08:57:58;;;;;;;4.60;2.08;;;24.00;49.50;;;;;;4804023;29;46278;-64
2022/10/31 09:00:23;;;;;;;5.10;1.63;;;24.10;49.40;;;;;;4802219;29;46169;-64
2022/10/31 09:02:55;;;;;;;4.15;2.10;;;24.10;49.40;;;;;;4802283;29;45677;-64
2022/10/31 09:05:21;;;;;;;3.17;1.77;;;24.20;49.20;;;;;;4807212;29;45245;-64
2022/10/31 09:07:46;;;;;;;3.08;1.90;;;24.20;49.30;;;;;;4807761;29;45296;-64
2022/10/31 09:10:12;;;;;;;3.35;1.90;;;24.30;49.40;;;;;;4807205;29;45865;-62
2022/10/31 09:12:37;;;;;;;2.35;1.80;;;24.30;49.30;;;;;;4807609;29;45488;-64
2022/10/31 09:15:06;;;;;;;6.03;1.75;;;24.40;49.20;;;;;;4805505;29;45405;-65
2022/10/31 09:17:31;;;;;;;3.35;1.60;;;24.40;49.20;;;;;;4808085;29;45270;-63
2022/10/31 09:19:57;;;;;;;2.17;1.80;;;24.40;49.20;;;;;;4807492;29;46151;-64
2022/10/31 09:22:22;;;;;;;2.67;1.67;;;24.50;49.10;;;;;;4804076;29;46073;-64
2022/10/31 09:24:48;;;;;;;2.83;1.70;;;24.60;49.10;;;;;;4803860;29;45405;-63
2022/10/31 09:27:14;;;;;;;3.25;1.90;;;24.60;49.10;;;;;;4806292;29;44979;-64
2022/10/31 09:29:39;;;;;;;3.40;1.80;;;24.60;49.00;;;;;;4810234;29;45891;-64
2022/10/31 09:32:05;;;;;;;4.68;2.03;;;24.70;49.10;;;;;;4806017;29;44901;-64
2022/10/31 09:34:30;;;;;;;2.15;1.55;;;24.80;49.60;;;;;;4803722;29;44779;-63
2022/10/31 09:36:56;;;;;;;2.05;1.63;;;24.80;48.90;;;;;;4806925;29;45037;-64
2022/10/31 09:39:22;;;;;;;3.22;1.83;;;24.90;48.80;;;;;;4805286;29;47114;-64
2022/10/31 09:42:15;;;;;;;4.05;1.65;;;25.00;48.70;;;;;;4800361;29;45572;-64
2022/10/31 09:44:55;;;;;;;2.70;1.80;;;25.00;48.10;;;;;;4805884;29;45514;-64
2022/10/31 09:47:27;;;;;;;1.58;1.48;;;25.10;48.40;;;;;;4807619;29;45133;-64
2022/10/31 09:50:07;;;;;;;2.08;1.60;;;25.10;48.60;;;;;;4798216;29;46962;-64
2022/10/31 09:52:34;;;;;;;3.13;1.80;;;25.10;48.10;;;;;;4800463;29;45527;-64
2022/10/31 09:55:14;;;;;;;3.90;1.77;;;25.20;48.50;;;;;;4809527;29;45158;-64
2022/10/31 09:57:39;;;;;;;3.33;1.67;;;25.20;48.10;;;;;;4804254;29;45905;-65
2022/10/31 10:00:06;;;;;;;6.47;2.13;;;25.30;48.50;;;;;;4804278;29;47017;-65
2022/10/31 10:02:36;;;;;;;2.35;1.58;;;25.30;48.40;;;;;;4804402;29;45456;-64
2022/10/31 10:05:03;;;;;;;5.10;1.70;;;25.40;48.30;;;;;;4801770;29;45664;-65
2022/10/31 10:07:39;;;;;;;4.57;1.58;;;25.40;48.40;;;;;;4806065;29;44779;-63
2022/10/31 10:10:26;;;;;;;2.90;1.90;;;25.40;48.10;;;;;;4803743;29;45932;-62
2022/10/31 10:13:22;;;;;;;2.72;1.65;;;25.50;47.80;;;;;;4806570;29;45104;-63
2022/10/31 10:15:57;;;;;;;3.03;1.70;;;25.50;47.90;;;;;;4804486;29;45025;-63
2022/10/31 10:18:31;;;;;;;4.45;1.90;;;25.50;48.10;;;;;;4808769;29;45621;-63
2022/10/31 10:21:09;;;;;;;3.00;1.65;;;25.60;48.30;;;;;;4803117;29;45878;-62
2022/10/31 10:23:34;;;;;;;1.52;1.42;;;25.60;48.00;;;;;;4800641;29;45372;-63
2022/10/31 10:26:19;;;;;;;5.30;2.20;;;25.60;48.20;;;;;;4804411;29;45385;-63
2022/10/31 10:29:24;;;;;;;3.28;1.60;;;25.60;47.50;;;;;;4801036;29;45236;-64
2022/10/31 10:31:49;;;;;;;2.83;1.50;;;25.70;47.40;;;;;;4774223;29;45025;-63
2022/10/31 10:34:39;;;;;;;7.45;1.80;;;25.60;48.10;;;;;;4774495;29;45284;-62
2022/10/31 10:37:12;;;;;;;3.45;1.60;;;25.50;47.40;;;;;;4803206;29;45563;-63
2022/10/31 10:39:43;;;;;;;2.47;1.52;;;25.40;48.10;;;;;;4796206;29;45415;-63
2022/10/31 10:47:48;;;;;;;2.85;1.60;;;25.20;48.50;;;;;;4809683;29;44794;-63
2022/10/31 10:50:21;;;;;;;;;;;25.20;48.50;;;;;;4774637;29;45549;-63
2022/10/31 10:52:49;;;;;;;3.50;1.75;;;25.10;48.20;;;;;;4802722;29;46026;-63
2022/10/31 10:55:27;;;;;;;1.80;1.50;;;25.10;48.80;;;;;;4803922;29;45242;-63
2022/10/31 10:57:56;;;;;;;2.75;1.60;;;25.10;48.80;;;;;;4806935;29;45601;-62
2022/10/31 11:00:24;;;;;;;3.45;1.77;;;25.10;48.80;;;;;;4787731;29;45510;-63
2022/10/31 11:02:50;;;;;;;1.77;1.42;;;25.00;48.80;;;;;;4787890;29;45374;-63
2022/10/31 11:05:47;;;;;;;5.72;1.75;;;25.00;48.90;;;;;;4804874;29;45373;-63
2022/10/31 11:08:33;;;;;;;2.28;1.60;;;24.90;48.70;;;;;;4800732;29;44797;-63
2022/10/31 11:11:03;;;;;;;5.63;1.60;;;24.90;48.90;;;;;;4809069;29;45645;-64
2022/10/31 11:13:30;;;;;;;1.80;1.40;;;24.80;49.10;;;;;;4810221;29;47059;-63
2022/10/31 11:16:08;;;;;;;2.50;1.38;;;24.80;49.30;;;;;;4806699;29;45624;-63
2022/10/31 11:18:37;;;;;;;2.38;1.70;;;24.70;49.20;;;;;;4808083;29;45253;-64
2022/10/31 11:21:04;;;;;;;1.98;1.60;;;24.70;49.30;;;;;;4789541;29;45369;-64
2022/10/31 11:23:30;;;;;;;3.17;1.90;;;24.60;49.40;;;;;;4803014;29;45931;-63
2022/10/31 11:25:59;;;;;;;2.15;1.70;;;24.60;49.40;;;;;;4774936;29;45332;-63
2022/10/31 11:28:29;;;;;;;2.58;1.83;;;24.60;49.50;;;;;;4806931;29;44757;-64
2022/10/31 11:31:00;;;;;;;4.97;1.77;;;24.60;49.60;;;;;;4799938;29;44902;-64
2022/10/31 11:33:32;;;;;;;5.65;2.08;;;24.50;49.60;;;;;;4798503;29;47121;-63
2022/10/31 11:35:58;;;;;;;3.83;1.77;;;24.50;49.60;;;;;;4801690;29;45324;-64
2022/10/31 11:38:30;;;;;;;5.47;1.65;;;24.40;49.70;;;;;;4806412;29;45561;-63
2022/10/31 11:41:07;;;;;;;3.00;1.85;;;24.40;49.70;;;;;;4804736;29;45297;-64
2022/10/31 11:43:33;;;;;;;2.67;1.70;;;24.40;49.80;;;;;;4801345;29;46395;-64
2022/10/31 11:45:58;;;;;;;1.83;1.73;;;24.40;49.90;;;;;;4804906;29;45253;-63
2022/10/31 11:48:24;;;;;;;1.90;1.48;;;24.30;49.90;;;;;;4805185;29;45716;-63
2022/10/31 11:50:55;;;;;;;1.73;1.63;;;24.30;50.00;;;;;;4800874;29;45583;-63
2022/10/31 11:53:32;;;;;;;3.55;1.85;;;24.20;49.90;;;;;;4799089;29;46153;-64
2022/10/31 11:56:10;;;;;;;2.75;1.63;;;24.20;50.00;;;;;;4773824;29;45293;-64
2022/10/31 11:58:36;;;;;;;3.85;2.00;;;24.20;50.00;;;;;;4789779;29;46022;-64
2022/10/31 12:01:01;;;;;;;2.20;1.60;;;24.10;50.10;;;;;;4802776;29;44791;-63
2022/10/31 12:03:38;;;;;;;3.80;1.50;;;24.10;50.10;;;;;;4803069;29;46248;-63
2022/10/31 12:06:20;;;;;;;3.47;1.70;;;24.10;50.00;;;;;;4801168;29;44865;-61
2022/10/31 12:08:46;;;;;;;2.42;1.83;;;24.10;50.10;;;;;;4803282;29;44697;-63
2022/10/31 12:11:34;;;;;;;6.32;1.95;;;24.00;50.20;;;;;;4791401;29;45418;-62
2022/10/31 12:14:08;;;;;;;3.08;2.10;;;24.00;50.20;;;;;;4809408;29;45612;-64
2022/10/31 12:16:42;;;;;;;2.00;1.42;;;24.00;50.20;;;;;;4806415;29;45188;-64
2022/10/31 12:19:21;;;;;;;5.35;1.70;;;24.00;50.20;;;;;;4801277;29;45265;-64
2022/10/31 12:21:46;;;;;;;1.58;1.40;;;24.00;50.20;;;;;;4807497;29;45466;-64
2022/10/31 12:24:18;;;;;;;2.03;1.67;;;24.00;50.30;;;;;;4807279;29;45269;-64
2022/10/31 12:27:05;;;;;;;2.72;1.75;;;24.00;50.30;;;;;;4804407;29;45647;-64
2022/10/31 12:29:36;;;;;;;3.28;1.85;;;24.00;50.30;;;;;;4807147;29;45096;-63
2022/10/31 12:32:30;;;;;;;1.95;1.52;;;23.90;50.30;;;;;;4801748;29;45700;-62
2022/10/31 12:35:18;;;;;;;3.00;1.90;;;23.90;50.40;;;;;;4809026;29;46285;-63
2022/10/31 12:38:11;;;;;;;4.50;1.80;;;23.90;50.40;;;;;;4806074;29;45255;-64
2022/10/31 12:41:00;;;;;;;2.95;1.60;;;23.90;50.50;;;;;;4804117;29;46668;-65
2022/10/31 12:43:42;;;;;;;2.50;1.60;;;23.90;50.50;;;;;;4763486;29;45637;-63
2022/10/31 12:46:29;;;;;;;4.18;1.77;;;23.80;51.20;;;;;;4802277;29;45563;-64
2022/10/31 12:49:12;;;;;;;2.92;1.92;;;23.80;50.70;;;;;;4801329;29;45619;-64
2022/10/31 12:52:07;;;;;;;4.50;1.83;;;23.80;50.80;;;;;;4801626;29;45238;-66
2022/10/31 12:54:56;;;;;;;3.45;1.75;;;23.80;50.70;;;;;;4802476;29;45396;-63
2022/10/31 12:57:32;;;;;;;1.95;1.58;;;23.80;50.70;;;;;;4803695;29;45227;-65
2022/10/31 13:00:04;;;;;;;2.25;1.63;;;23.80;50.70;;;;;;4792675;29;45306;-62
2022/10/31 13:02:38;;;;;;;3.70;1.50;;;23.80;50.80;;;;;;4804697;29;44995;-63
2022/10/31 13:05:30;;;;;;;3.00;1.90;;;23.80;50.80;;;;;;4806770;29;45323;-64
2022/10/31 13:08:08;;;;;;;4.03;1.52;;;23.70;50.80;;;;;;4799085;29;46843;-62
2022/10/31 13:10:44;;;;;;;2.70;1.50;;;23.70;50.90;;;;;;4805601;29;45220;-64
2022/10/31 13:13:27;;;;;;;2.50;1.73;;;23.70;50.90;;;;;;4806082;29;45729;-63
2022/10/31 13:15:58;;;;;;;2.05;1.75;;;23.70;51.00;;;;;;4802140;29;45417;-65
2022/10/31 13:18:47;;;;;;;4.65;1.90;;;23.70;51.00;;;;;;4798352;29;45951;-64
2022/10/31 13:21:44;;;;;;;3.42;1.90;;;23.70;51.00;;;;;;4801750;29;44703;-65
2022/10/31 13:24:14;;;;;;;2.33;1.77;;;23.70;51.00;;;;;;4806278;29;45382;-66
2022/10/31 13:26:56;;;;;;;2.33;1.60;;;23.60;51.10;;;;;;4803020;29;45327;-64
2022/10/31 13:29:27;;;;;;;2.78;1.48;;;23.60;51.10;;;;;;4769258;29;45022;-64
2022/10/31 13:31:53;;;;;;;2.00;1.60;;;23.60;51.20;;;;;;4790873;29;45397;-64
2022/10/31 13:34:39;;;;;;;2.38;1.30;;;23.60;51.20;;;;;;4805293;29;45109;-65
2022/10/31 13:37:11;;;;;;;3.83;2.17;;;23.60;51.20;;;;;;4791191;29;45563;-64
2022/10/31 13:40:02;;;;;;;2.70;1.80;;;23.60;51.30;;;;;;4805696;29;45127;-64
2022/10/31 13:42:59;;;;;;;2.97;1.40;;;23.60;51.30;;;;;;4802653;29;44762;-63
2022/10/31 13:45:25;;;;;;;1.92;1.40;;;23.50;51.30;;;;;;4801901;29;44957;-63
2022/10/31 13:47:58;;;;;;;3.75;1.77;;;23.50;51.30;;;;;;4801620;29;45253;-63
2022/10/31 13:50:31;;;;;;;1.73;1.63;;;23.60;51.40;;;;;;4806664;29;45918;-64
2022/10/31 13:53:09;;;;;;;;;;;23.50;51.40;;;;;;4806931;29;45180;-64
2022/10/31 13:55:44;;;;;;;2.63;1.55;;;23.50;51.60;;;;;;4809713;29;45450;-61
2022/10/31 13:58:26;;;;;;;2.00;1.23;;;23.50;51.50;;;;;;4811655;29;45288;-66
2022/10/31 14:01:03;;;;;;;2.42;1.67;;;23.50;51.50;;;;;;4807067;29;45236;-63
2022/10/31 14:03:29;;;;;;;3.80;1.60;;;23.50;51.50;;;;;;4804390;29;45069;-63
2022/10/31 14:05:55;;;;;;;3.13;1.85;;;23.50;51.60;;;;;;4806480;29;45824;-64
2022/10/31 14:08:22;;;;;;;4.20;1.90;;;23.50;51.60;;;;;;4810047;29;45551;-64
2022/10/31 14:10:49;;;;;;;1.88;1.65;;;23.50;51.70;;;;;;4806667;29;45920;-64
2022/10/31 14:13:23;;;;;;;1.67;1.35;;;23.50;51.70;;;;;;4795441;29;44658;-64
2022/10/31 14:16:06;;;;;;;1.55;1.42;;;23.50;51.70;;;;;;4803794;29;45048;-64
2022/10/31 14:18:37;;;;;;;4.68;1.83;;;23.50;51.80;;;;;;4806828;29;45978;-64
2022/10/31 14:21:24;;;;;;;2.83;2.03;;;23.40;51.80;;;;;;4814355;29;45734;-64
2022/10/31 14:23:53;;;;;;;2.55;1.52;;;23.40;51.90;;;;;;4807562;29;45134;-67
2022/10/31 14:26:28;;;;;;;3.28;1.80;;;23.50;51.90;;;;;;4807604;29;44774;-63
2022/10/31 14:28:55;;;;;;;2.95;1.50;;;23.40;51.90;;;;;;4808529;29;45481;-64
2022/10/31 14:31:37;;;;;;;2.63;2.10;;;23.40;51.90;;;;;;4802528;29;45235;-64
2022/10/31 14:34:18;;;;;;;2.47;1.60;;;23.40;51.90;;;;;;4793683;29;45635;-64
2022/10/31 14:37:03;;;;;;;4.40;1.50;;;23.40;51.90;;;;;;4809588;29;46233;-65
2022/10/31 14:39:38;;;;;;;2.45;1.63;;;23.40;52.00;;;;;;4802971;29;44683;-69
2022/10/31 14:42:07;;;;;;;3.83;1.90;;;23.40;52.00;;;;;;4799612;29;45388;-69
2022/10/31 14:44:49;;;;;;;1.73;1.30;;;23.40;52.00;;;;;;4803205;29;44970;-65
2022/10/31 14:47:32;;;;;;;2.40;1.80;;;23.40;52.10;;;;;;4809530;29;44940;-64
2022/10/31 14:50:06;;;;;;;2.40;1.70;;;23.30;52.10;;;;;;4808223;29;45301;-65
2022/10/31 14:52:32;;;;;;;1.73;1.55;;;23.30;52.10;;;;;;4807053;29;46327;-65
2022/10/31 14:54:58;;;;;;;3.22;1.80;;;23.40;52.70;;;;;;4813086;29;44908;-66
2022/10/31 14:57:26;;;;;;;3.42;1.40;;;23.30;52.10;;;;;;4808289;29;44837;-63
2022/10/31 14:59:55;;;;;;;3.97;1.80;;;23.30;52.20;;;;;;4805266;29;45044;-66
2022/10/31 15:02:28;;;;;;;2.10;1.60;;;23.30;52.10;;;;;;4809607;29;45540;-64
2022/10/31 15:04:54;;;;;;;4.47;1.92;;;23.30;52.10;;;;;;4806812;29;45085;-64
2022/10/31 15:07:24;;;;;;;1.50;1.40;;;23.30;52.10;;;;;;4792950;29;45277;-66
2022/10/31 15:09:57;;;;;;;3.63;2.05;;;23.30;52.30;;;;;;4808781;29;45266;-66
2022/10/31 15:12:23;;;;;;;;;;;23.30;52.30;;;;;;4804995;29;45927;-64
2022/10/31 15:14:48;;;;;;;5.75;1.80;;;23.30;52.40;;;;;;4806632;29;45551;-65
2022/10/31 15:17:14;;;;;;;3.72;1.80;;;23.30;52.30;;;;;;4804002;29;45360;-67
2022/10/31 15:19:40;;;;;;;3.25;1.38;;;23.30;52.30;;;;;;4806405;29;45252;-65
2022/10/31 15:22:05;;;;;;;1.90;1.60;;;23.30;52.30;;;;;;4803270;29;46093;-68
2022/10/31 15:24:34;;;;;;;3.22;1.45;;;23.30;52.30;;;;;;4804812;29;44758;-64
2022/10/31 15:26:59;;;;;;;3.05;1.42;;;23.30;52.30;;;;;;4809193;29;44674;-65
2022/10/31 15:29:26;;;;;;;2.65;1.70;;;23.30;52.40;;;;;;4778827;29;45449;-65
2022/10/31 15:31:55;;;;;;;1.88;1.40;;;23.30;52.40;;;;;;4801405;29;45415;-64
2022/10/31 15:34:22;;;;;;;5.75;1.70;;;23.30;52.40;;;;;;4801922;29;45217;-66
2022/10/31 15:36:49;;;;;;;3.60;1.60;;;23.20;52.40;;;;;;4803574;29;45756;-66
2022/10/31 15:39:15;;;;;;;5.63;1.88;;;23.30;52.40;;;;;;4804193;29;45333;-65
2022/10/31 15:41:47;;;;;;;1.85;1.48;;;23.30;52.40;;;;;;4798213;29;45933;-64
2022/10/31 15:44:21;;;;;;;2.50;1.60;;;23.30;52.50;;;;;;4805199;29;45253;-66
2022/10/31 15:46:54;;;;;;;3.13;1.55;;;23.20;52.40;;;;;;4806749;29;45275;-64
2022/10/31 15:49:41;;;;;;;3.03;1.70;;;23.20;52.50;;;;;;4804867;29;45637;-63
2022/10/31 15:52:34;;;;;;;2.88;1.80;;;23.20;52.50;;;;;;4806949;29;46189;-64
2022/10/31 15:55:10;;;;;;;1.73;1.40;;;23.20;52.50;;;;;;4790585;29;45019;-64
2022/10/31 15:57:40;;;;;;;2.95;1.50;;;23.20;52.50;;;;;;4805833;29;45207;-64
2022/10/31 16:00:06;;;;;;;3.08;1.42;;;23.20;52.50;;;;;;4810536;29;44744;-65
2022/10/31 16:02:32;;;;;;;2.65;1.70;;;23.20;52.50;;;;;;4805962;29;45356;-65
2022/10/31 16:05:00;;;;;;;2.85;1.60;;;23.20;52.50;;;;;;4809505;29;45285;-65
2022/10/31 16:07:26;;;;;;;2.42;1.60;;;23.20;52.50;;;;;;4804026;29;46908;-65
2022/10/31 16:10:00;;;;;;;3.25;1.80;;;23.20;52.50;;;;;;4797778;29;45925;-66
2022/10/31 16:12:32;;;;;;;1.95;1.40;;;23.20;52.50;;;;;;4791165;29;45165;-65
2022/10/31 16:14:57;;;;;;;2.42;1.38;;;23.20;52.50;;;;;;4802870;29;45184;-65
2022/10/31 16:17:24;;;;;;;2.00;1.80;;;23.20;52.50;;;;;;4808118;29;44706;-65
2022/10/31 16:19:51;;;;;;;1.90;1.70;;;23.10;52.50;;;;;;4806893;29;45437;-65
2022/10/31 16:22:37;;;;;;;4.45;1.85;;;23.20;52.60;;;;;;4806799;29;45015;-68
2022/10/31 16:25:11;;;;;;;2.60;1.75;;;23.10;52.60;;;;;;4799240;29;45366;-65
2022/10/31 16:27:36;;;;;;;3.80;1.65;;;23.10;52.60;;;;;;4798906;29;45629;-66
2022/10/31 16:30:23;;;;;;;2.50;1.75;;;23.10;52.60;;;;;;4804211;29;45363;-68
2022/10/31 16:32:53;;;;;;;3.05;1.50;;;23.10;52.70;;;;;;4805348;29;45226;-65
2022/10/31 16:35:27;;;;;;;1.95;1.58;;;23.10;52.70;;;;;;4808322;29;45271;-67
2022/10/31 16:37:53;;;;;;;2.35;1.38;;;23.10;52.80;;;;;;4804579;29;45443;-62
2022/10/31 16:40:20;;;;;;;1.73;1.25;;;23.10;52.70;;;;;;4800476;29;44989;-63
2022/10/31 16:42:48;;;;;;;2.30;1.50;;;23.10;52.70;;;;;;4805038;29;46261;-65
2022/10/31 16:45:21;;;;;;;1.65;1.48;;;23.10;52.80;;;;;;4793540;29;45812;-66
2022/10/31 16:47:48;;;;;;;1.90;1.50;;;23.10;52.90;;;;;;4801861;29;45845;-64
2022/10/31 16:50:17;;;;;;;1.85;1.58;;;23.00;52.90;;;;;;4805376;29;45149;-67
2022/10/31 16:52:44;;;;;;;1.70;1.27;;;23.00;52.90;;;;;;4803170;29;46375;-66
2022/10/31 16:55:11;;;;;;;2.80;1.52;;;23.00;52.90;;;;;;4797440;29;44660;-64
2022/10/31 16:57:37;;;;;;;3.17;1.77;;;23.00;53.00;;;;;;4804111;29;45065;-68
2022/10/31 17:00:03;;;;;;;2.08;1.35;;;22.90;53.00;;;;;;4802914;29;45342;-66
2022/10/31 17:02:28;;;;;;;3.00;1.38;;;22.90;53.00;;;;;;4802506;29;45975;-66
2022/10/31 17:04:54;;;;;;;2.40;1.33;;;22.90;53.10;;;;;;4808594;29;44633;-64
2022/10/31 17:07:19;;;;;;;2.05;1.50;;;22.90;53.50;;;;;;4806420;29;45435;-66
2022/10/31 17:09:45;;;;;;;2.35;1.30;;;22.90;53.10;;;;;;4806615;29;45230;-65